Sunday, November 19, 2017, 9:03 AM EST
Back to Local

KCBE, Cumberland, Greater Cumberland Regional Airport

Location: Wiley Ford, MD, United States Lat: 39.615
Local Time: 9:03 AM EST (14:03 GMT) Lon: -78.761
Time Zone: US/Eastern Elev: 774 ft

Show me the last for .
Show Decoded

2017-11-19 08:46 METAR KCBE 191346Z AUTO 29011G32KT 241V301 7SM SCT006 BKN015 BKN026 05/01 A2976
                 RMK AO1 =
2017-11-19 08:26 METAR KCBE 191326Z AUTO 29011G23KT 261V331 7SM SCT006 SCT016 BKN034 05/01 A2974
                 RMK AO1 =
2017-11-19 08:06 METAR KCBE 191306Z AUTO 27017G29KT 10SM SCT006 SCT011 BKN019 05/01 A2974 RMK AO1
                 =
2017-11-19 07:46 METAR KCBE 191246Z AUTO 27011G22KT 7SM SCT008 SCT016 BKN044 06/01 A2973 RMK AO1
                 =
2017-11-19 07:26 METAR KCBE 191226Z AUTO 28005G15KT 10SM SCT006 SCT016 SCT024 05/01 A2972 RMK AO1
                 =
2017-11-19 07:06 METAR KCBE 191206Z AUTO 26011G17KT 10SM SCT006 SCT010 BKN014 05/01 A2970 RMK AO1
                 =
2017-11-19 06:46 METAR KCBE 191146Z AUTO 26009G18KT 251V311 10SM SCT006 SCT012 BKN065 05/01 A2969
                 RMK AO1 =
2017-11-19 06:26 METAR KCBE 191126Z AUTO 25013G26KT 10SM SCT031 SCT044 SCT070 06/00 A2968 RMK AO1
                 =
2017-11-19 06:06 METAR KCBE 191106Z AUTO 26013G25KT 221V301 10SM SCT033 SCT075 06/00 A2966 RMK
                 AO1 =
2017-11-19 05:46 METAR KCBE 191046Z AUTO 25011G17KT 10SM SCT033 06/00 A2965 RMK AO1 =
2017-11-19 05:26 METAR KCBE 191026Z AUTO 28014G26KT 241V311 10SM SCT033 06/00 A2963 RMK AO1 =
2017-11-19 05:06 METAR KCBE 191006Z AUTO 27014G29KT 10SM SCT035 06/00 A2962 RMK AO1 =
2017-11-19 04:46 METAR KCBE 190946Z AUTO 27015G29KT 10SM CLR 06/00 A2959 RMK AO1 =
2017-11-19 04:26 METAR KCBE 190926Z AUTO 28016G29KT 10SM SCT034 06/01 A2957 RMK AO1 =
2017-11-19 04:06 METAR KCBE 190906Z AUTO 29012G21KT 251V321 10SM SCT034 06/01 A2957 RMK AO1 =
2017-11-19 03:46 METAR KCBE 190846Z AUTO 27017G36KT 10SM SCT034 SCT085 07/01 A2955 RMK AO1 =
2017-11-19 03:26 METAR KCBE 190826Z AUTO 28017G33KT 241V301 10SM SCT034 SCT085 09/03 A2951 RMK
                 AO1 =
2017-11-19 03:06 METAR KCBE 190806Z AUTO 28019G33KT 10SM SCT040 10/03 A2948 RMK AO1 =
2017-11-19 02:46 METAR KCBE 190746Z AUTO 27018G44KT 10SM SCT032 SCT039 SCT065 11/05 A2945 RMK AO1
                 =
2017-11-19 02:26 METAR KCBE 190726Z AUTO 27029G45KT 10SM SCT012 SCT032 BKN040 11/11 A2940 RMK AO1
                 =
2017-11-19 02:06 METAR KCBE 190706Z AUTO 00000KT 3SM BKN040 BKN047 BKN060 05/05 A2934 RMK AO1 =
2017-11-19 01:46 METAR KCBE 190646Z AUTO 00000KT 4SM SCT042 SCT050 05/05 A2931 RMK AO1 =
2017-11-19 01:26 METAR KCBE 190626Z AUTO 32003KT 4SM SCT047 05/05 A2929 RMK AO1 =
2017-11-19 01:06 METAR KCBE 190606Z AUTO 34004KT 3SM 05/05 A2930 RMK AO1 SKY OBSCURED =
2017-11-19 00:46 METAR KCBE 190546Z AUTO 00000KT 5SM SCT003 05/05 A2931 RMK AO1 =
2017-11-19 00:26 METAR KCBE 190526Z AUTO 20005KT 4SM SCT001 SCT090 05/05 A2934 RMK AO1 =
2017-11-19 00:06 METAR KCBE 190506Z AUTO 16006KT 2 1/2SM 04/04 A2934 RMK AO1 SKY OBSCURED =
2017-11-18 23:46 METAR KCBE 190446Z AUTO 21005KT 2SM OVC002 04/04 A2935 RMK AO1 =
2017-11-18 23:26 METAR KCBE 190426Z AUTO 00000KT 2SM SCT002 OVC007 05/05 A2937 RMK AO1 =
2017-11-18 23:06 METAR KCBE 190406Z AUTO 00000KT 2 1/2SM 05/05 A2939 RMK AO1 SKY OBSCURED =
2017-11-18 22:46 METAR KCBE 190346Z AUTO 00000KT 3SM 05/05 A2940 RMK AO1 SKY OBSCURED =
2017-11-18 22:26 METAR KCBE 190326Z AUTO 00000KT 3SM BKN003 BKN013 OVC046 04/04 A2941 RMK AO1 =
2017-11-18 22:06 METAR KCBE 190306Z AUTO 00000KT 4SM SCT001 SCT006 OVC048 04/04 A2941 RMK AO1 =
2017-11-18 21:46 METAR KCBE 190246Z AUTO 00000KT 3SM SCT001 SCT004 OVC050 04/04 A2941 RMK AO1 =
2017-11-18 21:26 METAR KCBE 190226Z AUTO 00000KT 2SM BKN004 OVC050 04/04 A2942 RMK AO1 =
2017-11-18 21:06 METAR KCBE 190206Z AUTO 00000KT 2SM BKN002 OVC050 04/04 A2943 RMK AO1 =
2017-11-18 20:46 METAR KCBE 190146Z AUTO 00000KT 1 1/4SM OVC002 04/04 A2944 RMK AO1 =
2017-11-18 20:26 METAR KCBE 190126Z AUTO 00000KT 1SM OVC002 03/03 A2945 RMK AO1 =
2017-11-18 20:06 METAR KCBE 190106Z AUTO 00000KT 1/2SM OVC002 03/03 A2947 RMK AO1 =
2017-11-18 19:46 METAR KCBE 190046Z AUTO 00000KT 1/2SM OVC002 03/03 A2947 RMK AO1 =
2017-11-18 19:26 METAR KCBE 190026Z AUTO 08003KT 1 1/4SM OVC002 04/04 A2949 RMK AO1 =
2017-11-18 19:06 METAR KCBE 190006Z AUTO 00000KT 2 1/2SM OVC002 04/04 A2951 RMK AO1 =
2017-11-18 18:46 METAR KCBE 182346Z AUTO 00000KT 1 3/4SM BKN002 04/04 A2951 RMK AO1 =
2017-11-18 18:26 METAR KCBE 182326Z AUTO 00000KT 4SM SCT001 03/03 A2954 RMK AO1 =
2017-11-18 18:06 METAR KCBE 182306Z AUTO 00000KT 2 1/2SM 04/04 A2954 RMK AO1 SKY OBSCURED =
2017-11-18 17:46 METAR KCBE 182246Z AUTO 13003KT 4SM SCT001 04/04 A2953 RMK AO1 =
2017-11-18 17:26 METAR KCBE 182226Z AUTO 00000KT 5SM BKN003 04/04 A2955 RMK AO1 =
2017-11-18 17:06 METAR KCBE 182206Z AUTO 00000KT 5SM OVC003 04/04 A2957 RMK AO1 =
2017-11-18 16:46 METAR KCBE 182146Z AUTO 00000KT 3SM OVC003 04/04 A2956 RMK AO1 =
2017-11-18 16:26 METAR KCBE 182126Z AUTO 00000KT 4SM BKN003 04/04 A2959 RMK AO1 =
2017-11-18 16:06 METAR KCBE 182106Z AUTO 00000KT 7SM SCT003 04/04 A2960 RMK AO1 =
2017-11-18 15:46 METAR KCBE 182046Z AUTO 00000KT 10SM BKN005 04/04 A2961 RMK AO1 =
2017-11-18 15:26 METAR KCBE 182026Z AUTO 00000KT 10SM BKN005 OVC014 04/04 A2961 RMK AO1 =
2017-11-18 15:06 METAR KCBE 182006Z AUTO 00000KT 5SM BKN001 BKN006 OVC014 04/04 A2963 RMK AO1 =
2017-11-18 14:46 METAR KCBE 181946Z AUTO 00000KT 4SM BKN001 OVC011 03/03 A2963 RMK AO1 =
2017-11-18 14:26 METAR KCBE 181926Z AUTO 00000KT 3SM OVC001 03/03 A2965 RMK AO1 =
2017-11-18 14:06 METAR KCBE 181906Z AUTO 00000KT 2 1/2SM OVC001 03/03 A2966 RMK AO1 =
2017-11-18 13:46 METAR KCBE 181846Z AUTO 00000KT 3/4SM OVC001 03/03 A2967 RMK AO1 =
2017-11-18 13:26 METAR KCBE 181826Z AUTO 00000KT 1 3/4SM OVC001 03/03 A2968 RMK AO1 =
2017-11-18 13:06 METAR KCBE 181806Z AUTO 00000KT 1 3/4SM OVC001 03/03 A2969 RMK AO1 =
2017-11-18 12:46 METAR KCBE 181746Z AUTO 00000KT 1 1/4SM OVC001 03/03 A2971 RMK AO1 =
2017-11-18 12:26 METAR KCBE 181726Z AUTO 00000KT 1 3/4SM BKN003 OVC009 03/03 A2973 RMK AO1 =
2017-11-18 12:06 METAR KCBE 181706Z AUTO 00000KT 2SM OVC001 03/03 A2973 RMK AO1 =
2017-11-18 11:46 METAR KCBE 181646Z AUTO 00000KT 1 1/4SM OVC001 02/02 A2975 RMK AO1 =
2017-11-18 11:26 METAR KCBE 181626Z AUTO 00000KT 3/4SM OVC003 02/02 A2977 RMK AO1 =
2017-11-18 11:06 METAR KCBE 181606Z AUTO 00000KT 3SM BKN006 BKN013 OVC019 02/02 A2979 RMK AO1 =
2017-11-18 10:46 METAR KCBE 181546Z AUTO 00000KT 3SM BKN006 BKN010 BKN015 02/02 A2980 RMK AO1 =
2017-11-18 10:26 METAR KCBE 181526Z AUTO 00000KT 3SM 02/02 A2980 RMK AO1 SKY OBSCURED =
2017-11-18 10:06 METAR KCBE 181506Z AUTO 36003KT 3/4SM BKN003 BKN009 BKN016 02/02 A2980 RMK AO1 =
2017-11-18 09:46 METAR KCBE 181446Z AUTO 00000KT 1 1/2SM SCT006 02/01 A2981 RMK AO1 =
2017-11-18 09:26 METAR KCBE 181426Z AUTO 00000KT 1 3/4SM BKN006 BKN010 BKN060 02/00 A2982 RMK AO1
                 VIS 1V3 =
2017-11-18 09:06 METAR KCBE 181406Z AUTO 00000KT 7SM SCT060 02/00 A2983 RMK AO1 =

Support USWX by starting your Amazon purchase here.